Time;durP1;ratioP1;P1;durP2;ratioP2;P2;SDS_P1;SDS_P2;PMS_P1;PMS_P2;Temp;Humidity;BMP_temperature;BMP_pressure;BME280_temperature;BME280_humidity;BME280_pressure;Samples;Min_cycle;Max_cycle;Signal;HPM_P1;HPM_P2
2022/05/25 00:00:19;;;;;;;1.63;0.70;;;20.20;61.10;;;;;;5100448;27;20934;-50
2022/05/25 00:02:59;;;;;;;1.20;0.80;;;20.20;61.10;;;;;;5071156;28;20586;-49
2022/05/25 00:05:44;;;;;;;0.83;0.80;;;20.20;61.10;;;;;;5081051;28;20545;-47
2022/05/25 00:08:24;;;;;;;0.77;0.67;;;20.20;61.10;;;;;;5103464;27;20539;-47
2022/05/25 00:11:05;;;;;;;0.80;0.80;;;20.20;61.10;;;;;;5081333;28;20523;-48
2022/05/25 00:13:48;;;;;;;1.47;0.90;;;20.20;61.20;;;;;;5074179;27;20544;-47
2022/05/25 00:16:28;;;;;;;0.90;0.70;;;20.10;61.90;;;;;;5120686;27;21431;-46
2022/05/25 00:22:10;;;;;;;0.70;0.70;;;20.10;61.00;;;;;;5077153;27;20523;-47
2022/05/25 00:24:50;;;;;;;0.97;0.87;;;20.10;61.00;;;;;;5078944;28;20622;-48
2022/05/25 00:27:31;;;;;;;0.90;0.70;;;20.10;61.10;;;;;;5069130;28;20583;-47
2022/05/25 00:30:13;;;;;;;1.20;1.10;;;20.10;61.00;;;;;;5100735;27;20583;-48
2022/05/25 00:32:55;;;;;;;0.80;0.70;;;20.10;61.10;;;;;;5097155;27;20548;-48
2022/05/25 00:35:37;;;;;;;1.17;0.60;;;20.10;61.10;;;;;;5113412;27;20947;-48
2022/05/25 00:38:17;;;;;;;1.03;0.83;;;20.10;61.10;;;;;;5089299;27;20602;-47
2022/05/25 00:40:58;;;;;;;0.77;0.60;;;20.10;61.10;;;;;;5080771;28;20523;-47
2022/05/25 00:43:40;;;;;;;0.90;0.80;;;20.10;61.10;;;;;;5097501;27;20943;-50
2022/05/25 00:46:21;;;;;;;0.60;0.60;;;20.10;61.10;;;;;;5078447;28;20519;-52
2022/05/25 00:49:05;;;;;;;1.57;1.00;;;20.10;61.10;;;;;;5062170;27;20595;-50
2022/05/25 00:51:49;;;;;;;0.80;0.70;;;20.10;61.10;;;;;;5113185;27;20603;-47
2022/05/25 00:54:36;;;;;;;0.70;0.70;;;20.10;61.10;;;;;;5078755;28;20595;-49
2022/05/25 00:57:19;;;;;;;0.87;0.70;;;20.10;61.10;;;;;;5073495;28;20975;-48
2022/05/25 01:00:06;;;;;;;1.07;0.90;;;20.00;61.00;;;;;;5080135;28;20516;-49
2022/05/25 01:02:49;;;;;;;0.90;0.80;;;20.10;61.00;;;;;;5072806;27;20602;-48
2022/05/25 01:05:34;;;;;;;1.13;0.80;;;20.10;61.00;;;;;;5161802;27;20548;-49
2022/05/25 01:08:28;;;;;;;0.80;0.77;;;20.00;61.00;;;;;;5056679;27;20547;-48
2022/05/25 01:11:21;;;;;;;0.93;0.70;;;20.00;61.00;;;;;;5100595;27;21040;-47
2022/05/25 01:14:16;;;;;;;0.90;0.77;;;20.00;61.00;;;;;;5064123;27;20552;-49
2022/05/25 01:17:03;;;;;;;1.23;0.70;;;20.00;60.90;;;;;;5121542;27;20606;-49
2022/05/25 01:20:03;;;;;;;0.77;0.77;;;20.00;61.00;;;;;;5100399;27;20931;-49
2022/05/25 01:23:15;;;;;;;1.00;0.80;;;20.00;61.00;;;;;;5067583;28;20542;-49
2022/05/25 01:26:24;;;;;;;0.80;0.70;;;20.00;60.80;;;;;;5079313;28;21122;-47
2022/05/25 01:29:35;;;;;;;1.40;0.73;;;20.00;61.00;;;;;;5065031;27;20555;-48
2022/05/25 01:32:25;;;;;;;0.90;0.50;;;20.00;60.90;;;;;;5077976;28;20988;-47
2022/05/25 01:35:12;;;;;;;1.10;0.80;;;20.00;60.90;;;;;;5073430;28;21083;-49
2022/05/25 01:37:58;;;;;;;0.70;0.70;;;20.00;61.00;;;;;;5077591;27;20608;-48
2022/05/25 01:40:44;;;;;;;0.60;0.60;;;19.90;60.90;;;;;;5101748;27;20535;-49
2022/05/25 01:43:29;;;;;;;0.70;0.70;;;19.90;61.00;;;;;;5057146;28;20538;-47
2022/05/25 01:46:16;;;;;;;0.90;0.80;;;20.00;61.00;;;;;;5078672;27;20541;-47
2022/05/25 01:48:57;;;;;;;0.70;0.63;;;19.90;60.90;;;;;;5050412;27;20680;-48
2022/05/25 01:51:46;;;;;;;0.83;0.67;;;19.90;61.00;;;;;;5080784;28;21058;-49
2022/05/25 01:54:31;;;;;;;0.70;0.50;;;19.90;61.00;;;;;;5078955;28;20523;-48
2022/05/25 01:57:14;;;;;;;0.77;0.70;;;19.90;61.00;;;;;;5113775;27;20599;-47
2022/05/25 01:59:54;;;;;;;1.07;0.97;;;19.90;60.90;;;;;;5080725;28;21420;-47
2022/05/25 02:05:41;;;;;;;0.70;0.60;;;19.90;61.00;;;;;;5075818;27;21004;-49
2022/05/25 02:08:32;;;;;;;0.60;0.50;;;19.90;61.00;;;;;;5063854;27;20546;-50
2022/05/25 02:11:19;;;;;;;1.03;0.90;;;19.90;61.00;;;;;;5107844;27;20526;-47
2022/05/25 02:14:04;;;;;;;0.90;0.50;;;19.90;60.90;;;;;;5042605;28;20546;-48
2022/05/25 02:16:54;;;;;;;0.70;0.50;;;19.90;61.00;;;;;;5087173;28;20536;-47
2022/05/25 02:19:41;;;;;;;0.70;0.50;;;19.80;61.00;;;;;;5128183;27;20609;-45
2022/05/25 02:22:30;;;;;;;0.80;0.80;;;19.80;60.90;;;;;;5112195;27;20590;-48
2022/05/25 02:25:16;;;;;;;1.00;0.67;;;19.80;60.90;;;;;;5086188;28;20516;-48
2022/05/25 02:28:03;;;;;;;0.60;0.60;;;19.80;60.70;;;;;;5061698;27;20543;-49
2022/05/25 02:30:47;;;;;;;1.03;0.80;;;19.80;61.00;;;;;;5087556;27;20527;-49
2022/05/25 02:33:33;;;;;;;0.73;0.70;;;19.80;60.90;;;;;;5094679;27;20625;-47
2022/05/25 02:36:15;;;;;;;1.00;0.90;;;19.80;60.80;;;;;;5163562;27;20526;-48
2022/05/25 02:38:56;;;;;;;0.97;0.87;;;19.80;60.80;;;;;;5060960;27;20533;-48
2022/05/25 02:41:46;;;;;;;1.10;0.70;;;19.80;61.00;;;;;;5087580;28;20526;-48
2022/05/25 02:44:30;;;;;;;0.80;0.73;;;19.80;60.90;;;;;;5079622;28;21054;-48
2022/05/25 02:47:11;;;;;;;0.97;0.80;;;19.80;60.80;;;;;;5101783;27;20538;-48
2022/05/25 02:49:52;;;;;;;0.80;0.80;;;19.70;60.80;;;;;;5087171;28;20577;-50
2022/05/25 02:52:33;;;;;;;1.00;0.80;;;19.70;60.90;;;;;;5073379;28;20533;-49
2022/05/25 02:55:13;;;;;;;1.67;1.10;;;19.70;60.80;;;;;;5086234;27;20528;-49
2022/05/25 02:57:58;;;;;;;1.77;1.20;;;19.70;60.50;;;;;;5118037;27;20550;-49
2022/05/25 03:00:42;;;;;;;0.80;0.60;;;19.70;60.70;;;;;;5087964;28;20620;-46
2022/05/25 03:03:22;;;;;;;1.40;0.83;;;19.70;60.90;;;;;;5059730;28;21115;-48
2022/05/25 03:06:03;;;;;;;1.20;1.10;;;19.70;60.90;;;;;;5118447;27;20594;-47
2022/05/25 03:08:45;;;;;;;0.60;0.60;;;19.70;61.10;;;;;;5066373;27;20958;-50
2022/05/25 03:11:26;;;;;;;1.00;0.80;;;19.70;60.80;;;;;;5078171;27;20573;-48
2022/05/25 03:14:08;;;;;;;1.03;0.80;;;19.70;60.80;;;;;;5036177;27;20558;-49
2022/05/25 03:16:49;;;;;;;0.93;0.80;;;19.70;60.80;;;;;;5100468;22;20566;-71
2022/05/25 03:19:30;;;;;;;0.80;0.80;;;19.70;60.80;;;;;;5081654;28;20926;-48
2022/05/25 03:22:10;;;;;;;0.80;0.70;;;19.70;60.90;;;;;;5117820;27;20573;-48
2022/05/25 03:24:50;;;;;;;2.20;1.03;;;19.70;60.80;;;;;;5100953;27;20524;-48
2022/05/25 03:27:32;;;;;;;1.30;0.70;;;19.70;60.90;;;;;;5049618;27;20547;-48
2022/05/25 03:30:16;;;;;;;1.17;1.07;;;19.60;60.80;;;;;;5101686;27;20539;-48
2022/05/25 03:32:57;;;;;;;0.97;0.70;;;19.70;60.70;;;;;;5073188;27;21027;-49
2022/05/25 03:35:38;;;;;;;1.20;0.70;;;19.60;60.70;;;;;;5122182;27;20513;-48
2022/05/25 03:38:22;;;;;;;1.10;0.80;;;19.60;60.80;;;;;;5095038;27;20563;-48
2022/05/25 03:41:02;;;;;;;1.27;0.70;;;19.60;60.90;;;;;;5143171;27;21061;-48
2022/05/25 03:43:43;;;;;;;1.37;0.70;;;19.60;60.80;;;;;;5065062;28;20951;-49
2022/05/25 03:46:23;;;;;;;0.60;0.50;;;19.60;60.70;;;;;;5081019;28;21153;-47
2022/05/25 03:49:04;;;;;;;0.80;0.60;;;19.60;60.80;;;;;;5045875;27;20957;-47
2022/05/25 03:51:44;;;;;;;0.70;0.60;;;19.60;61.00;;;;;;5072745;27;20578;-49
2022/05/25 03:54:25;;;;;;;1.40;0.87;;;19.60;60.70;;;;;;5060283;27;20546;-48
2022/05/25 03:57:06;;;;;;;0.70;0.70;;;19.60;61.00;;;;;;5090953;27;20596;-48
2022/05/25 03:59:47;;;;;;;1.10;0.97;;;19.60;60.90;;;;;;5122983;27;20517;-48
2022/05/25 04:02:28;;;;;;;1.03;0.80;;;19.60;60.70;;;;;;5118451;27;20537;-49
2022/05/25 04:05:10;;;;;;;0.60;0.60;;;19.60;60.90;;;;;;5100710;27;20528;-48
2022/05/25 04:07:51;;;;;;;0.80;0.80;;;19.60;60.90;;;;;;5064795;27;20590;-48
2022/05/25 04:10:33;;;;;;;0.70;0.60;;;19.60;61.00;;;;;;5081160;28;21084;-48
2022/05/25 04:13:16;;;;;;;1.17;1.00;;;19.60;60.80;;;;;;5083342;27;20627;-48
2022/05/25 04:15:57;;;;;;;0.77;0.77;;;19.60;60.90;;;;;;5080001;28;20519;-49
2022/05/25 04:18:36;;;;;;;1.20;0.67;;;19.60;60.90;;;;;;5053916;28;20564;-48
2022/05/25 04:21:20;;;;;;;1.07;0.80;;;19.60;60.60;;;;;;5076399;27;20941;-48
2022/05/25 04:24:02;;;;;;;1.13;0.90;;;19.60;60.90;;;;;;5063771;27;20636;-47
2022/05/25 04:26:42;;;;;;;1.20;0.80;;;19.50;60.90;;;;;;5101672;27;20936;-47
2022/05/25 04:29:24;;;;;;;1.27;0.87;;;19.50;60.80;;;;;;5035446;27;20591;-48
2022/05/25 04:32:06;;;;;;;0.70;0.70;;;19.50;60.90;;;;;;5081357;27;20537;-48
2022/05/25 04:34:47;;;;;;;0.67;0.50;;;19.50;60.80;;;;;;5121235;27;20897;-48
2022/05/25 04:40:30;;;;;;;0.83;0.60;;;19.50;60.80;;;;;;5123323;27;20930;-48
2022/05/25 04:43:14;;;;;;;0.87;0.80;;;19.50;60.70;;;;;;5068961;28;20551;-49
2022/05/25 04:45:55;;;;;;;1.23;1.13;;;19.40;60.90;;;;;;5101820;27;20581;-48
2022/05/25 04:48:37;;;;;;;2.60;0.90;;;19.40;60.70;;;;;;5062195;27;20549;-48
2022/05/25 04:51:17;;;;;;;0.83;0.80;;;19.40;60.70;;;;;;5098973;27;20592;-48
2022/05/25 04:53:59;;;;;;;1.10;0.77;;;19.40;60.80;;;;;;5053257;27;20595;-49
2022/05/25 04:59:39;;;;;;;0.90;0.70;;;19.40;61.00;;;;;;5081876;27;20580;-49
2022/05/25 05:02:21;;;;;;;0.80;0.60;;;19.40;60.60;;;;;;5078751;27;20524;-49
2022/05/25 05:05:02;;;;;;;1.03;0.93;;;19.40;60.90;;;;;;5079840;27;21108;-48
2022/05/25 05:07:43;;;;;;;0.60;0.60;;;19.40;60.60;;;;;;5089230;27;20552;-48
2022/05/25 05:10:25;;;;;;;1.37;0.83;;;19.40;60.70;;;;;;5081760;28;20591;-49
2022/05/25 05:13:07;;;;;;;2.20;0.90;;;19.40;60.70;;;;;;5062218;28;20967;-49
2022/05/25 05:15:52;;;;;;;1.43;0.90;;;19.40;60.80;;;;;;5121299;27;20536;-49
2022/05/25 05:18:33;;;;;;;0.73;0.73;;;19.40;60.60;;;;;;5109339;27;20575;-48
2022/05/25 05:21:36;;;;;;;1.10;1.00;;;19.40;60.70;;;;;;5081155;27;20584;-48
2022/05/25 05:24:18;;;;;;;3.33;1.00;;;19.40;60.80;;;;;;5061277;27;20545;-48
2022/05/25 05:26:59;;;;;;;0.73;0.73;;;19.40;60.60;;;;;;5080313;28;20892;-49
2022/05/25 05:29:41;;;;;;;0.80;0.70;;;19.40;60.20;;;;;;5081815;27;20534;-48
2022/05/25 05:32:22;;;;;;;1.50;1.00;;;19.40;60.30;;;;;;5095770;27;20540;-48
2022/05/25 05:35:04;;;;;;;0.53;0.53;;;19.40;60.40;;;;;;5080833;28;20527;-48
2022/05/25 05:37:49;;;;;;;0.83;0.80;;;19.40;60.40;;;;;;5106519;27;20534;-49
2022/05/25 05:40:32;;;;;;;0.80;0.60;;;19.30;60.00;;;;;;5081719;28;20526;-48
2022/05/25 05:43:13;;;;;;;0.93;0.70;;;19.30;60.10;;;;;;5033429;27;20911;-48
2022/05/25 05:45:56;;;;;;;0.63;0.63;;;19.30;60.00;;;;;;5121263;27;20521;-49
2022/05/25 05:48:38;;;;;;;0.67;0.67;;;19.40;60.40;;;;;;5081707;27;20546;-48
2022/05/25 05:51:22;;;;;;;1.03;0.93;;;19.40;60.10;;;;;;5082036;28;20525;-49
2022/05/25 05:54:03;;;;;;;0.73;0.70;;;19.40;60.20;;;;;;5120479;27;20551;-48
2022/05/25 05:56:45;;;;;;;0.87;0.73;;;19.30;59.80;;;;;;5081530;27;20952;-49
2022/05/25 05:59:28;;;;;;;0.97;0.60;;;19.30;60.00;;;;;;5080690;28;20540;-48
2022/05/25 06:02:09;;;;;;;1.07;0.83;;;19.30;59.80;;;;;;5080869;27;20921;-49
2022/05/25 06:04:51;;;;;;;0.77;0.70;;;19.30;59.60;;;;;;5080819;27;20513;-49
2022/05/25 06:07:31;;;;;;;0.60;0.50;;;19.30;60.00;;;;;;5057917;27;20550;-49
2022/05/25 06:10:13;;;;;;;1.00;0.90;;;19.30;59.90;;;;;;5076272;27;20715;-49
2022/05/25 06:12:58;;;;;;;0.80;0.70;;;19.30;59.50;;;;;;5072373;27;21004;-48
2022/05/25 06:21:42;;;;;;;1.00;0.73;;;19.30;59.70;;;;;;5097823;27;20608;-48
2022/05/25 06:24:22;;;;;;;1.70;0.90;;;19.30;59.40;;;;;;5023450;27;2504528;-48
2022/05/25 06:27:04;;;;;;;0.70;0.70;;;19.30;59.40;;;;;;5092845;27;20592;-49
2022/05/25 06:29:48;;;;;;;1.13;0.87;;;19.30;59.40;;;;;;5101013;27;20585;-49
2022/05/25 06:32:29;;;;;;;1.03;0.67;;;19.30;59.40;;;;;;5076628;27;20989;-49
2022/05/25 06:35:14;;;;;;;1.20;1.10;;;19.30;59.40;;;;;;5079428;27;20520;-49
2022/05/25 06:37:55;;;;;;;0.80;0.70;;;19.30;59.40;;;;;;5051062;27;20988;-49
2022/05/25 06:40:37;;;;;;;1.00;0.53;;;19.30;59.40;;;;;;5122145;27;21137;-49
2022/05/25 06:43:18;;;;;;;2.80;0.87;;;19.30;59.60;;;;;;5065295;28;21026;-50
2022/05/25 06:46:01;;;;;;;2.03;0.83;;;19.30;59.40;;;;;;5080614;27;20885;-49
2022/05/25 06:48:59;;;;;;;0.77;0.67;;;19.30;59.10;;;;;;5074541;27;20576;-49
2022/05/25 06:51:42;;;;;;;0.60;0.60;;;19.30;58.80;;;;;;5076961;27;20653;-50
2022/05/25 06:54:27;;;;;;;1.57;0.47;;;19.30;58.90;;;;;;5100999;27;20625;-48
2022/05/25 06:57:09;;;;;;;0.57;0.50;;;19.30;58.90;;;;;;5118814;27;21045;-50
2022/05/25 06:59:51;;;;;;;0.60;0.60;;;19.30;58.70;;;;;;5079380;28;20528;-50
2022/05/25 07:02:34;;;;;;;0.80;0.60;;;19.30;58.90;;;;;;5075908;27;20535;-49
2022/05/25 07:05:17;;;;;;;0.50;0.50;;;19.30;58.90;;;;;;5079010;28;21027;-50
2022/05/25 07:08:01;;;;;;;1.27;0.77;;;19.30;59.00;;;;;;5045665;27;20578;-49
2022/05/25 07:10:45;;;;;;;0.80;0.60;;;19.30;59.10;;;;;;5123010;27;20523;-50
2022/05/25 07:13:30;;;;;;;0.70;0.60;;;19.30;59.40;;;;;;5063309;27;20916;-50
2022/05/25 07:16:15;;;;;;;0.90;0.67;;;19.30;59.30;;;;;;5100416;27;21123;-49
2022/05/25 07:18:58;;;;;;;1.00;0.80;;;19.30;59.40;;;;;;5050017;27;20580;-50
2022/05/25 07:21:42;;;;;;;0.70;0.70;;;19.30;59.50;;;;;;5101590;27;20563;-49
2022/05/25 07:24:25;;;;;;;1.40;0.67;;;19.30;59.50;;;;;;5121007;27;21051;-50
2022/05/25 07:27:09;;;;;;;0.67;0.67;;;19.30;59.50;;;;;;5079056;27;20518;-49
2022/05/25 07:29:52;;;;;;;1.23;0.90;;;19.30;59.50;;;;;;5081001;27;20518;-49
2022/05/25 07:32:34;;;;;;;0.50;0.50;;;19.30;59.60;;;;;;4260721;27;25364558;-50
2022/05/25 07:35:18;;;;;;;1.13;0.80;;;19.30;59.60;;;;;;5117240;27;20582;-49
2022/05/25 07:38:04;;;;;;;0.60;0.57;;;19.30;59.50;;;;;;5100002;27;20951;-50
2022/05/25 07:40:46;;;;;;;0.77;0.63;;;19.30;59.60;;;;;;5121832;27;21139;-49
2022/05/25 07:43:34;;;;;;;1.27;0.63;;;19.30;59.50;;;;;;5086136;27;20602;-50
2022/05/25 07:46:28;;;;;;;0.97;0.77;;;19.30;59.50;;;;;;5114641;27;20891;-50
2022/05/25 07:49:19;;;;;;;0.90;0.73;;;19.30;59.50;;;;;;5103824;27;20571;-51
2022/05/25 07:52:21;;;;;;;0.60;0.50;;;19.30;59.50;;;;;;5121738;27;21574;-49
2022/05/25 07:55:30;;;;;;;0.97;0.63;;;19.30;59.60;;;;;;5169073;27;20531;-50
2022/05/25 07:58:29;;;;;;;0.50;0.50;;;19.30;59.60;;;;;;5089298;27;20588;-49
2022/05/25 08:09:17;;;;;;;0.60;0.50;;;19.30;59.60;;;;;;5027411;28;20536;-52
2022/05/25 08:12:48;;;;;;;0.87;0.60;;;19.30;59.30;;;;;;4991214;28;20465;-50
2022/05/25 08:16:15;;;;;;;0.90;0.80;;;19.30;59.20;;;;;;5060903;28;20605;-50
2022/05/25 08:23:58;;;;;;;0.70;0.60;;;19.30;59.10;;;;;;5132230;27;20304;-49
2022/05/25 08:59:31;;;;;;;0.87;0.73;;;19.30;57.00;;;;;;4933997;28;20569;-50
2022/05/25 09:13:05;;;;;;;1.10;0.67;;;19.30;57.20;;;;;;6214899;22;3082204;-48
2022/05/25 09:34:05;;;;;;;1.10;0.60;;;19.20;56.70;;;;;;5013283;27;20585;-49
2022/05/25 09:37:10;;;;;;;2.70;0.60;;;19.30;56.70;;;;;;5088105;22;20594;-47
2022/05/25 09:40:26;;;;;;;0.88;0.50;;;19.30;56.60;;;;;;4662071;27;15060680;-46
2022/05/25 09:44:31;;;;;;;0.60;0.40;;;19.30;56.70;;;;;;5054060;27;20546;-48
2022/05/25 09:48:38;;;;;;;2.80;0.87;;;19.30;56.60;;;;;;5078773;27;20678;-48
2022/05/25 09:52:36;;;;;;;0.90;0.50;;;19.30;56.60;;;;;;5085051;27;20531;-44
2022/05/25 10:00:04;;;;;;;0.80;0.63;;;19.30;56.70;;;;;;5051486;27;20714;-46
2022/05/25 10:03:58;;;;;;;0.57;0.50;;;19.20;56.60;;;;;;5059709;28;21000;-50
2022/05/25 10:07:31;;;;;;;0.77;0.60;;;19.20;56.50;;;;;;5127891;27;20513;-47
2022/05/25 10:10:32;;;;;;;1.60;0.63;;;19.20;56.60;;;;;;5106003;27;20309;-48
2022/05/25 10:13:58;;;;;;;0.73;0.70;;;19.20;56.70;;;;;;5070757;27;20532;-47
2022/05/25 10:21:27;;;;;;;0.80;0.50;;;19.20;56.80;;;;;;5105958;27;20572;-47
2022/05/25 10:25:41;;;;;;;0.70;0.50;;;19.20;56.50;;;;;;4766555;27;11457303;-50
2022/05/25 10:52:18;;;;;;;0.97;0.40;;;19.20;56.60;;;;;;4689739;27;9428115;-48
2022/05/25 10:55:22;;;;;;;0.60;0.50;;;19.30;56.80;;;;;;4278665;27;25275381;-47
2022/05/25 10:58:38;;;;;;;0.90;0.70;;;19.20;56.70;;;;;;5104569;27;20577;-46
2022/05/25 11:01:36;;;;;;;0.50;0.40;;;19.30;56.70;;;;;;5082101;27;20569;-47
2022/05/25 11:04:35;;;;;;;0.50;0.40;;;19.30;56.60;;;;;;5003097;27;20682;-48
2022/05/25 11:07:33;;;;;;;0.53;0.53;;;19.30;56.60;;;;;;5119020;27;20595;-47
2022/05/25 11:10:43;;;;;;;0.50;0.50;;;19.20;55.80;;;;;;5143659;27;20522;-48
2022/05/25 11:13:51;;;;;;;0.80;0.50;;;19.30;56.40;;;;;;5115130;27;21042;-48
2022/05/25 11:16:51;;;;;;;1.00;0.60;;;19.30;56.40;;;;;;5133980;27;20920;-48
2022/05/25 11:19:59;;;;;;;0.60;0.47;;;19.30;56.30;;;;;;5062364;27;20312;-48
2022/05/25 11:22:48;;;;;;;0.80;0.70;;;19.30;56.30;;;;;;5124648;27;20558;-47
2022/05/25 11:25:48;;;;;;;1.20;0.50;;;19.30;56.50;;;;;;5100467;27;20595;-46
2022/05/25 11:28:54;;;;;;;0.70;0.57;;;19.30;56.40;;;;;;5081458;27;20284;-46
2022/05/25 11:31:44;;;;;;;0.87;0.57;;;19.30;56.20;;;;;;5081731;28;20928;-48
2022/05/25 11:34:40;;;;;;;0.90;0.70;;;19.30;56.30;;;;;;5058345;27;21070;-48
2022/05/25 11:37:42;;;;;;;0.70;0.50;;;19.30;56.50;;;;;;5056256;28;20564;-47
2022/05/25 11:40:45;;;;;;;0.70;0.40;;;19.30;56.30;;;;;;5102078;27;20817;-47
2022/05/25 11:43:55;;;;;;;0.70;0.50;;;19.30;57.70;;;;;;5118266;27;20632;-50
2022/05/25 11:46:45;;;;;;;1.50;1.20;;;19.30;56.60;;;;;;5117503;27;20994;-46
2022/05/25 11:50:17;;;;;;;0.57;0.40;;;19.30;56.10;;;;;;5102727;27;20612;-49
2022/05/25 11:53:22;;;;;;;0.60;0.50;;;19.30;56.30;;;;;;4977188;28;20571;-49
2022/05/25 11:56:10;;;;;;;0.50;0.50;;;19.30;56.60;;;;;;5129104;27;20525;-67
2022/05/25 11:59:13;;;;;;;0.80;0.70;;;19.30;56.40;;;;;;5055168;27;20575;-48
2022/05/25 12:02:05;;;;;;;0.60;0.53;;;19.30;56.70;;;;;;5072599;27;20572;-48
2022/05/25 12:05:12;;;;;;;0.80;0.50;;;19.30;56.80;;;;;;5080833;27;20515;-47
2022/05/25 12:08:22;;;;;;;0.67;0.40;;;19.40;56.50;;;;;;5118923;27;20590;-47
2022/05/25 12:11:15;;;;;;;2.57;0.80;;;19.40;56.70;;;;;;5080410;28;20568;-47
2022/05/25 12:14:34;;;;;;;2.00;0.73;;;19.40;56.80;;;;;;5083451;27;20620;-47
2022/05/25 12:17:27;;;;;;;1.13;0.40;;;19.40;56.80;;;;;;5071216;27;20554;-47
2022/05/25 12:20:12;;;;;;;0.90;0.53;;;19.40;56.70;;;;;;5081897;27;20553;-47
2022/05/25 12:23:02;;;;;;;0.60;0.60;;;19.40;56.40;;;;;;5110245;27;20579;-48
2022/05/25 12:25:57;;;;;;;0.93;0.50;;;19.40;56.50;;;;;;5142715;27;21086;-49
2022/05/25 12:28:46;;;;;;;1.13;0.80;;;19.40;56.40;;;;;;5071621;27;20534;-48
2022/05/25 12:31:31;;;;;;;0.60;0.50;;;19.40;56.60;;;;;;5142448;27;21034;-48
2022/05/25 12:34:16;;;;;;;0.70;0.60;;;19.40;56.40;;;;;;5048787;28;20626;-47
2022/05/25 12:37:00;;;;;;;0.60;0.60;;;19.40;56.20;;;;;;5073362;28;20312;-48
2022/05/25 12:40:03;;;;;;;0.80;0.60;;;19.40;56.30;;;;;;5096013;27;20958;-49
2022/05/25 12:42:47;;;;;;;0.73;0.73;;;19.40;56.50;;;;;;5096882;27;20572;-48
2022/05/25 12:48:58;;;;;;;0.60;0.50;;;19.40;56.40;;;;;;5075549;27;20574;-49
2022/05/25 12:51:43;;;;;;;0.53;0.50;;;19.40;56.20;;;;;;5071785;27;21114;-48
2022/05/25 12:54:33;;;;;;;0.60;0.40;;;19.50;56.20;;;;;;5101101;27;20586;-47
2022/05/25 12:57:37;;;;;;;0.80;0.50;;;19.50;56.20;;;;;;5092759;27;20817;-49
2022/05/25 13:00:34;;;;;;;1.60;0.60;;;19.50;55.90;;;;;;5101503;27;20945;-47
2022/05/25 13:03:38;;;;;;;0.90;0.60;;;19.50;55.60;;;;;;5093434;27;20574;-47
2022/05/25 13:06:21;;;;;;;0.90;0.60;;;19.50;57.10;;;;;;5119103;27;20562;-48
2022/05/25 13:09:31;;;;;;;0.90;0.70;;;19.50;56.10;;;;;;5063600;27;20682;-54
2022/05/25 13:12:43;;;;;;;0.83;0.80;;;19.50;56.20;;;;;;5131129;27;20471;-48
2022/05/25 13:15:45;;;;;;;1.57;0.67;;;19.50;55.90;;;;;;5120920;27;20767;-47
2022/05/25 13:18:48;;;;;;;0.60;0.50;;;19.50;55.90;;;;;;4969210;28;20631;-45
2022/05/25 13:21:42;;;;;;;0.83;0.80;;;19.60;56.30;;;;;;5099215;27;20547;-46
2022/05/25 13:24:56;;;;;;;0.67;0.50;;;19.60;56.20;;;;;;5060450;27;21211;-49
2022/05/25 13:28:15;;;;;;;1.07;0.67;;;19.60;56.10;;;;;;5063437;27;20616;-47
2022/05/25 13:31:06;;;;;;;1.83;0.60;;;19.60;56.40;;;;;;5102409;27;20779;-47
2022/05/25 13:33:48;;;;;;;0.70;0.60;;;19.60;56.30;;;;;;5078774;27;20549;-46
2022/05/25 13:36:44;;;;;;;1.43;0.60;;;19.60;56.30;;;;;;5099807;27;20584;-47
2022/05/25 13:39:28;;;;;;;0.70;0.53;;;19.60;56.40;;;;;;5041594;27;20611;-48
2022/05/25 13:42:15;;;;;;;0.80;0.60;;;19.60;56.10;;;;;;5110296;27;1360234;-47
2022/05/25 13:45:06;;;;;;;1.00;0.73;;;19.60;56.20;;;;;;5080782;27;20688;-49
2022/05/25 13:47:56;;;;;;;1.37;0.80;;;19.60;56.20;;;;;;5057050;28;20563;-47
2022/05/25 13:50:41;;;;;;;2.10;0.53;;;19.60;56.00;;;;;;5122699;27;20555;-48
2022/05/25 13:53:34;;;;;;;0.70;0.70;;;19.60;56.10;;;;;;5054136;27;20633;-48
2022/05/25 13:56:24;;;;;;;0.87;0.50;;;19.60;56.10;;;;;;5099889;27;21155;-49
2022/05/25 13:59:08;;;;;;;1.00;0.60;;;19.60;55.90;;;;;;5062488;27;20548;-49
2022/05/25 14:01:49;;;;;;;0.83;0.60;;;19.60;55.90;;;;;;5101942;27;21045;-47
2022/05/25 14:04:29;;;;;;;0.73;0.53;;;19.60;55.60;;;;;;5059668;27;20547;-49
2022/05/25 14:07:13;;;;;;;1.00;0.73;;;19.60;56.50;;;;;;5073735;28;21371;-48
2022/05/25 14:12:59;;;;;;;0.90;0.50;;;19.60;55.50;;;;;;5061542;27;20708;-47
2022/05/25 14:15:41;;;;;;;1.83;0.87;;;19.70;55.70;;;;;;5100800;27;20572;-48
2022/05/25 14:18:22;;;;;;;2.90;0.70;;;19.70;55.60;;;;;;5042858;27;20551;-47
2022/05/25 14:21:03;;;;;;;1.27;0.60;;;19.70;54.90;;;;;;5081374;28;20943;-49
2022/05/25 14:23:45;;;;;;;1.10;0.70;;;19.70;54.80;;;;;;5068003;27;20610;-48
2022/05/25 14:26:30;;;;;;;2.30;0.70;;;19.70;55.10;;;;;;5078510;28;20515;-49
2022/05/25 14:29:15;;;;;;;1.10;0.70;;;19.70;55.40;;;;;;5056464;27;21098;-51
2022/05/25 14:32:13;;;;;;;0.87;0.70;;;19.70;55.70;;;;;;5103154;27;20575;-47
2022/05/25 14:34:57;;;;;;;1.00;0.60;;;19.70;55.80;;;;;;5100221;27;20587;-48
2022/05/25 14:37:41;;;;;;;0.60;0.50;;;19.70;55.70;;;;;;5075470;27;20686;-49
2022/05/25 14:40:30;;;;;;;1.23;0.70;;;19.70;55.50;;;;;;5142462;27;20551;-51
2022/05/25 14:43:38;;;;;;;1.13;0.97;;;19.70;55.40;;;;;;5060136;27;20574;-47
2022/05/25 14:46:25;;;;;;;0.60;0.60;;;19.70;55.10;;;;;;5121433;27;20538;-47
2022/05/25 14:49:16;;;;;;;1.60;0.70;;;19.70;55.50;;;;;;5072610;27;21191;-47
2022/05/25 14:52:02;;;;;;;1.03;0.97;;;19.70;57.00;;;;;;5072573;27;20533;-48
2022/05/25 14:54:42;;;;;;;0.70;0.70;;;19.80;55.80;;;;;;5101093;27;20550;-50
2022/05/25 14:57:24;;;;;;;1.60;0.60;;;19.80;55.80;;;;;;5096568;27;20545;-45
2022/05/25 15:00:11;;;;;;;0.77;0.50;;;19.80;55.70;;;;;;5120653;27;20528;-47
2022/05/25 15:03:00;;;;;;;0.73;0.50;;;19.80;55.70;;;;;;5058011;27;20673;-47
2022/05/25 15:05:48;;;;;;;1.00;0.80;;;19.80;55.90;;;;;;5113969;27;20529;-48
2022/05/25 15:08:32;;;;;;;0.60;0.60;;;19.80;55.70;;;;;;5087922;27;20588;-49
2022/05/25 15:11:36;;;;;;;0.60;0.60;;;19.80;55.80;;;;;;5081308;27;20529;-49
2022/05/25 15:20:45;;;;;;;0.80;0.73;;;19.80;56.20;;;;;;5120868;27;21084;-48
2022/05/25 15:23:31;;;;;;;0.80;0.60;;;19.80;55.30;;;;;;5056899;27;21151;-47
2022/05/25 15:26:21;;;;;;;0.73;0.50;;;19.80;55.40;;;;;;5100673;27;21081;-50
2022/05/25 15:29:28;;;;;;;1.47;0.50;;;19.80;55.40;;;;;;5071914;27;20573;-46
2022/05/25 15:32:12;;;;;;;0.70;0.70;;;19.80;55.10;;;;;;5120493;27;20519;-51
2022/05/25 15:34:53;;;;;;;1.13;0.60;;;19.80;54.80;;;;;;5139149;27;20574;-51
2022/05/25 15:37:35;;;;;;;1.37;0.70;;;19.80;54.80;;;;;;5177556;22;20548;-49
2022/05/25 15:40:17;;;;;;;1.23;0.50;;;19.90;54.70;;;;;;5061685;27;20623;-50
2022/05/25 15:43:07;;;;;;;0.60;0.50;;;19.80;54.50;;;;;;5096217;27;20544;-52
2022/05/25 15:45:48;;;;;;;0.60;0.60;;;19.90;54.20;;;;;;5100280;27;20595;-49
2022/05/25 15:48:28;;;;;;;0.60;0.47;;;19.90;54.20;;;;;;5111028;27;20966;-49
2022/05/25 15:51:17;;;;;;;0.80;0.60;;;19.90;54.30;;;;;;5080621;28;20918;-48
2022/05/25 15:53:59;;;;;;;0.67;0.53;;;19.90;54.30;;;;;;5065605;28;20545;-50
2022/05/25 15:56:41;;;;;;;0.87;0.60;;;19.90;54.30;;;;;;5077729;27;20528;-48
2022/05/25 15:59:23;;;;;;;1.10;1.00;;;19.90;54.40;;;;;;5035259;27;21146;-48
2022/05/25 16:02:05;;;;;;;0.93;0.60;;;19.90;54.60;;;;;;5121889;27;21096;-50
2022/05/25 16:04:49;;;;;;;1.23;0.70;;;19.90;55.40;;;;;;5080595;27;20544;-48
2022/05/25 16:10:31;;;;;;;0.67;0.67;;;19.90;55.10;;;;;;5081294;28;20584;-47
2022/05/25 16:13:19;;;;;;;0.63;0.63;;;19.90;54.00;;;;;;5089658;27;21130;-48
2022/05/25 16:16:02;;;;;;;2.33;0.80;;;19.90;53.70;;;;;;5081747;27;20523;-48
2022/05/25 16:18:44;;;;;;;0.50;0.50;;;19.90;53.90;;;;;;5082875;27;20547;-51
2022/05/25 16:21:26;;;;;;;3.07;0.80;;;19.90;53.60;;;;;;5080803;27;21048;-48
2022/05/25 16:24:08;;;;;;;0.93;0.90;;;20.00;53.80;;;;;;5072693;27;20544;-49
2022/05/25 16:26:51;;;;;;;3.77;0.80;;;20.00;53.80;;;;;;5096798;27;21107;-48
2022/05/25 16:29:34;;;;;;;0.80;0.70;;;20.00;53.60;;;;;;5100564;27;20567;-48
2022/05/25 16:32:15;;;;;;;1.67;0.90;;;20.00;53.80;;;;;;5078745;27;20668;-51
2022/05/25 16:34:56;;;;;;;0.80;0.70;;;20.00;53.00;;;;;;5081236;28;20648;-47
2022/05/25 16:37:42;;;;;;;1.27;0.80;;;20.00;53.20;;;;;;5082140;27;20539;-51
2022/05/25 16:40:23;;;;;;;1.10;0.63;;;20.00;52.80;;;;;;5102539;27;20577;-51
2022/05/25 16:43:05;;;;;;;0.80;0.60;;;20.00;53.20;;;;;;5092727;27;20556;-49
2022/05/25 16:45:46;;;;;;;1.00;0.80;;;20.00;52.90;;;;;;5080894;27;20520;-47
2022/05/25 16:48:27;;;;;;;0.90;0.80;;;20.00;53.20;;;;;;5052026;28;20551;-50
2022/05/25 16:51:11;;;;;;;0.70;0.70;;;20.00;53.20;;;;;;5076484;27;20880;-47
2022/05/25 16:53:55;;;;;;;1.27;0.67;;;20.00;52.50;;;;;;5073928;27;21225;-47
2022/05/25 16:56:36;;;;;;;2.43;0.70;;;20.00;52.70;;;;;;5118685;27;20538;-49
2022/05/25 16:59:18;;;;;;;0.73;0.73;;;20.00;52.60;;;;;;5059720;28;20560;-50